createdAt,value
2018-07-04T00:00:30.229Z,46.6
2018-07-04T00:01:30.959Z,46.8
2018-07-04T00:02:31.638Z,46.9
2018-07-04T00:03:32.317Z,47.2
2018-07-04T00:04:32.996Z,46.8
2018-07-04T00:05:33.677Z,47.7
2018-07-04T00:06:34.415Z,47.4
2018-07-04T00:07:35.134Z,47.6
2018-07-04T00:08:35.812Z,47.7
2018-07-04T00:09:36.543Z,47.6
2018-07-04T00:10:37.221Z,47.8
2018-07-04T00:11:37.899Z,48.3
2018-07-04T00:12:38.578Z,48.2
2018-07-04T00:13:39.257Z,48.1
2018-07-04T00:14:39.935Z,48.3
2018-07-04T00:15:40.616Z,48.1
2018-07-04T00:16:41.293Z,48.6
2018-07-04T00:17:42.023Z,48.4
2018-07-04T00:18:42.754Z,48.5
2018-07-04T00:19:43.436Z,48.9
2018-07-04T00:20:44.109Z,48.7
2018-07-04T00:21:44.794Z,49.2
2018-07-04T00:22:45.468Z,49.0
2018-07-04T00:23:46.205Z,48.8
2018-07-04T00:24:46.928Z,49.1
2018-07-04T00:25:47.656Z,49.4
2018-07-04T00:26:48.286Z,49.3
2018-07-04T00:27:49.015Z,49.5
2018-07-04T00:28:49.693Z,49.3
2018-07-04T00:29:50.375Z,49.2
2018-07-04T00:30:51.054Z,49.2
2018-07-04T00:31:51.731Z,48.9
2018-07-04T00:32:52.473Z,49.0
2018-07-04T00:33:53.141Z,49.2
2018-07-04T00:34:53.820Z,49.9
2018-07-04T00:35:54.499Z,49.7
2018-07-04T00:36:55.228Z,49.8
2018-07-04T00:37:55.905Z,49.7
2018-07-04T00:38:56.589Z,49.5
2018-07-04T00:39:57.314Z,49.6
2018-07-04T00:40:57.990Z,49.9
2018-07-04T00:41:58.670Z,49.9
2018-07-04T00:42:59.349Z,49.7
2018-07-04T00:44:00.090Z,50.0
2018-07-04T00:45:00.707Z,50.0
2018-07-04T00:46:01.438Z,50.1
2018-07-04T00:47:02.115Z,50.9
2018-07-04T00:48:02.843Z,50.2
2018-07-04T00:49:03.520Z,50.3
2018-07-04T00:50:04.201Z,50.0
2018-07-04T00:51:04.878Z,50.3
2018-07-04T00:52:05.557Z,50.7
2018-07-04T00:53:06.286Z,50.7
2018-07-04T00:54:06.963Z,50.4
2018-07-04T00:55:07.646Z,50.6
2018-07-04T00:56:08.372Z,50.6
2018-07-04T00:57:09.048Z,50.0
2018-07-04T00:58:09.726Z,50.9
2018-07-04T00:59:10.404Z,50.4
2018-07-04T01:00:11.083Z,50.6
2018-07-04T01:01:11.762Z,50.1
2018-07-04T01:02:12.489Z,50.7
2018-07-04T01:03:13.216Z,50.3
2018-07-04T01:04:13.898Z,49.9
2018-07-04T01:05:14.575Z,50.6
2018-07-04T01:06:15.253Z,50.8
2018-07-04T01:07:15.931Z,50.7
2018-07-04T01:08:16.610Z,50.7
2018-07-04T01:09:17.290Z,50.8
2018-07-04T01:10:17.968Z,50.7
2018-07-04T01:11:18.645Z,50.7
2018-07-04T01:12:19.371Z,50.7
2018-07-04T01:13:20.050Z,50.9
2018-07-04T01:14:20.731Z,50.6
2018-07-04T01:15:21.456Z,50.5
2018-07-04T01:16:22.135Z,50.6
2018-07-04T01:17:22.866Z,50.4
2018-07-04T01:18:23.543Z,50.6
2018-07-04T01:19:24.272Z,50.4
2018-07-04T01:20:24.949Z,50.6
2018-07-04T01:21:25.626Z,50.6
2018-07-04T01:22:26.354Z,50.6
2018-07-04T01:23:27.032Z,50.4
2018-07-04T01:24:27.761Z,50.1
2018-07-04T01:25:28.487Z,50.4
2018-07-04T01:26:29.166Z,50.3
2018-07-04T01:27:29.843Z,50.6
2018-07-04T01:28:30.524Z,50.8
2018-07-04T01:29:31.250Z,50.4
2018-07-04T01:30:31.978Z,50.6
2018-07-04T01:31:32.657Z,50.9
2018-07-04T01:32:33.337Z,51.0
2018-07-04T01:33:34.014Z,51.0
2018-07-04T01:34:34.694Z,51.2
2018-07-04T01:35:35.423Z,50.8
2018-07-04T01:36:36.101Z,51.6
2018-07-04T01:37:36.780Z,51.2
2018-07-04T01:38:37.457Z,51.2
2018-07-04T01:39:38.136Z,51.4
2018-07-04T01:40:38.815Z,51.6
2018-07-04T01:41:39.495Z,51.6
2018-07-04T01:42:40.171Z,51.7
2018-07-04T01:43:40.901Z,51.7
2018-07-04T01:44:41.580Z,51.8
2018-07-04T01:45:42.256Z,51.4
2018-07-04T01:46:42.937Z,51.7
2018-07-04T01:47:43.665Z,51.7
2018-07-04T01:48:44.345Z,51.8
2018-07-04T01:49:45.022Z,51.7
2018-07-04T01:50:45.713Z,51.8
2018-07-04T01:51:46.427Z,52.3
2018-07-04T01:52:47.105Z,52.5
2018-07-04T01:53:47.783Z,52.5
2018-07-04T01:54:48.461Z,52.2
2018-07-04T01:55:49.191Z,52.4
2018-07-04T01:56:49.868Z,51.9
2018-07-04T01:57:50.550Z,52.7
2018-07-04T01:58:51.275Z,52.9
2018-07-04T01:59:51.953Z,52.9
2018-07-04T02:00:52.633Z,52.5
2018-07-04T02:01:53.312Z,52.2
2018-07-04T02:02:53.990Z,52.7
2018-07-04T02:03:54.717Z,52.9
2018-07-04T02:04:55.393Z,52.2
2018-07-04T02:05:56.072Z,52.2
2018-07-04T02:06:56.753Z,52.4
2018-07-04T02:07:57.430Z,52.7
2018-07-04T02:08:58.204Z,52.9
2018-07-04T02:09:58.884Z,52.3
2018-07-04T02:10:59.563Z,52.5
2018-07-04T02:12:00.244Z,52.6
2018-07-04T02:13:00.918Z,52.3
2018-07-04T02:14:01.646Z,52.4
2018-07-04T02:15:02.324Z,52.6
2018-07-04T02:16:03.053Z,52.5
2018-07-04T02:17:03.731Z,52.6
2018-07-04T02:18:04.410Z,52.7
2018-07-04T02:19:05.089Z,52.9
2018-07-04T02:20:05.866Z,52.6
2018-07-04T02:21:06.545Z,52.5
2018-07-04T02:22:07.224Z,52.7
2018-07-04T02:23:07.900Z,52.3
2018-07-04T02:24:08.579Z,52.7
2018-07-04T02:25:09.305Z,52.8
2018-07-04T02:26:09.981Z,53.0
2018-07-04T02:27:10.663Z,52.8
2018-07-04T02:28:11.391Z,52.9
2018-07-04T02:29:12.071Z,52.9
2018-07-04T02:30:12.751Z,53.3
2018-07-04T02:31:13.425Z,53.5
2018-07-04T02:32:14.152Z,53.5
2018-07-04T02:33:14.880Z,53.8
2018-07-04T02:34:15.558Z,53.6
2018-07-04T02:35:16.236Z,53.4
2018-07-04T02:36:16.912Z,53.6
2018-07-04T02:37:17.591Z,53.8
2018-07-04T02:38:18.370Z,54.2
2018-07-04T02:39:19.048Z,54.0
2018-07-04T02:40:19.726Z,54.3
2018-07-04T02:41:20.460Z,54.1
2018-07-04T02:42:21.135Z,54.3
2018-07-04T02:43:21.816Z,54.1
2018-07-04T02:44:22.492Z,54.0
2018-07-04T02:45:23.171Z,54.1
2018-07-04T02:46:23.901Z,54.4
2018-07-04T02:47:24.581Z,54.4
2018-07-04T02:48:25.265Z,54.3
2018-07-04T02:49:25.939Z,53.8
2018-07-04T02:50:26.618Z,53.8
2018-07-04T02:51:27.345Z,53.7
2018-07-04T02:52:28.025Z,53.8
2018-07-04T02:53:28.704Z,53.8
2018-07-04T02:54:29.382Z,53.8
2018-07-04T02:55:30.062Z,53.9
2018-07-04T02:56:30.794Z,53.8
2018-07-04T02:57:31.519Z,53.8
2018-07-04T02:58:32.197Z,54.0
2018-07-04T02:59:32.876Z,54.0
2018-07-04T03:00:33.557Z,54.4
2018-07-04T03:01:34.336Z,54.3
2018-07-04T03:02:35.018Z,54.2
2018-07-04T03:03:35.695Z,54.0
2018-07-04T03:04:36.374Z,54.0
2018-07-04T03:05:37.056Z,53.9
2018-07-04T03:06:37.833Z,54.4
2018-07-04T03:07:38.513Z,54.2
2018-07-04T03:08:39.192Z,54.5
2018-07-04T03:09:39.872Z,54.5
2018-07-04T03:10:40.555Z,54.3
2018-07-04T03:11:41.231Z,54.1
2018-07-04T03:12:41.911Z,54.2
2018-07-04T03:13:42.591Z,54.2
2018-07-04T03:14:43.317Z,54.4
2018-07-04T03:15:44.048Z,54.8
2018-07-04T03:16:44.729Z,54.7
2018-07-04T03:17:45.412Z,54.6
2018-07-04T03:18:46.091Z,54.6
2018-07-04T03:19:46.771Z,54.7
2018-07-04T03:20:47.504Z,54.7
2018-07-04T03:21:48.184Z,54.8
2018-07-04T03:22:48.867Z,54.8
2018-07-04T03:23:49.549Z,55.1
2018-07-04T03:24:50.229Z,55.0
2018-07-04T03:25:50.961Z,55.1
2018-07-04T03:26:51.640Z,55.4
2018-07-04T03:27:52.325Z,55.0
2018-07-04T03:28:53.009Z,55.1
2018-07-04T03:29:53.734Z,55.2
2018-07-04T03:30:54.414Z,55.1
2018-07-04T03:31:55.094Z,54.9
2018-07-04T03:32:55.793Z,55.1
2018-07-04T03:33:56.504Z,55.0
2018-07-04T03:34:57.235Z,54.9
2018-07-04T03:35:57.915Z,55.4
2018-07-04T03:36:58.596Z,55.1
2018-07-04T03:37:59.276Z,55.0
2018-07-04T03:38:59.956Z,55.7
2018-07-04T03:40:00.695Z,55.2
2018-07-04T03:41:01.420Z,55.1
2018-07-04T03:42:02.100Z,55.1
2018-07-04T03:43:02.782Z,55.2
2018-07-04T03:44:03.460Z,54.8
2018-07-04T03:45:04.193Z,55.1
2018-07-04T03:46:04.873Z,55.2
2018-07-04T03:47:05.556Z,55.2
2018-07-04T03:48:06.237Z,55.1
2018-07-04T03:49:06.967Z,55.2
2018-07-04T03:50:07.647Z,55.1
2018-07-04T03:51:08.327Z,55.2
2018-07-04T03:52:09.010Z,55.0
2018-07-04T03:53:09.692Z,55.0
2018-07-04T03:54:10.472Z,54.9
2018-07-04T03:55:11.153Z,55.0
2018-07-04T03:56:11.836Z,54.9
2018-07-04T03:57:12.515Z,55.4
2018-07-04T03:58:13.246Z,55.3
2018-07-04T03:59:13.927Z,55.1
2018-07-04T04:00:14.609Z,55.1
2018-07-04T04:01:15.342Z,54.7
2018-07-04T04:02:16.024Z,54.7
2018-07-04T04:03:16.708Z,54.8
2018-07-04T04:04:17.390Z,54.7
2018-07-04T04:05:18.072Z,54.8
2018-07-04T04:06:18.803Z,54.7
2018-07-04T04:07:19.531Z,54.8
2018-07-04T04:08:20.168Z,54.8
2018-07-04T04:09:20.849Z,54.9
2018-07-04T04:10:21.533Z,54.8
2018-07-04T04:11:22.218Z,54.8
2018-07-04T04:12:22.947Z,54.6
2018-07-04T04:13:23.631Z,54.7
2018-07-04T04:14:24.311Z,55.1
2018-07-04T04:15:24.994Z,54.9
2018-07-04T04:16:25.676Z,54.8
2018-07-04T04:17:26.359Z,54.6
2018-07-04T04:18:27.041Z,54.5
2018-07-04T04:19:27.774Z,54.4
2018-07-04T04:20:28.457Z,54.6
2018-07-04T04:21:29.139Z,54.9
2018-07-04T04:22:29.821Z,54.9
2018-07-04T04:23:30.504Z,55.0
2018-07-04T04:24:31.238Z,55.0
2018-07-04T04:25:31.920Z,54.4
2018-07-04T04:26:32.613Z,54.6
2018-07-04T04:27:33.286Z,54.4
2018-07-04T04:28:33.969Z,55.0
2018-07-04T04:29:34.701Z,54.8
2018-07-04T04:30:35.381Z,54.8
2018-07-04T04:31:36.063Z,54.7
2018-07-04T04:32:36.794Z,54.7
2018-07-04T04:33:37.554Z,54.8
2018-07-04T04:34:38.178Z,54.4
2018-07-04T04:35:38.860Z,54.5
2018-07-04T04:36:39.542Z,54.4
2018-07-04T04:37:40.273Z,54.5
2018-07-04T04:38:40.954Z,54.4
2018-07-04T04:39:41.637Z,54.3
2018-07-04T04:40:42.320Z,54.3
2018-07-04T04:41:43.003Z,54.2
2018-07-04T04:42:43.686Z,54.4
2018-07-04T04:43:44.371Z,54.1
2018-07-04T04:44:45.097Z,54.1
2018-07-04T04:45:45.828Z,54.3
2018-07-04T04:46:46.510Z,54.0
2018-07-04T04:47:47.193Z,54.1
2018-07-04T04:48:47.924Z,53.8
2018-07-04T04:49:48.657Z,54.0
2018-07-04T04:50:49.339Z,54.0
2018-07-04T04:51:50.022Z,54.2
2018-07-04T04:52:50.706Z,53.9
2018-07-04T04:53:51.388Z,54.0
2018-07-04T04:54:52.147Z,54.1
2018-07-04T04:55:52.804Z,54.5
2018-07-04T04:56:53.520Z,54.3
2018-07-04T04:57:54.167Z,53.8
2018-07-04T04:58:54.900Z,53.6
2018-07-04T04:59:55.581Z,53.5
2018-07-04T05:00:56.264Z,53.4
2018-07-04T05:01:56.949Z,53.5
2018-07-04T05:02:57.681Z,53.5
2018-07-04T05:03:58.366Z,53.6
2018-07-04T05:04:59.099Z,53.6
2018-07-04T05:05:59.783Z,53.8
2018-07-04T05:07:00.466Z,54.0
2018-07-04T05:08:01.148Z,53.8
2018-07-04T05:09:01.880Z,53.8
2018-07-04T05:10:02.561Z,53.5
2018-07-04T05:11:03.247Z,53.7
2018-07-04T05:12:03.926Z,53.6
2018-07-04T05:13:04.611Z,53.6
2018-07-04T05:14:05.342Z,53.4
2018-07-04T05:15:06.027Z,53.4
2018-07-04T05:16:06.760Z,53.1
2018-07-04T05:17:07.442Z,53.0
2018-07-04T05:18:08.126Z,53.0
2018-07-04T05:19:08.856Z,52.8
2018-07-04T05:20:09.540Z,52.7
2018-07-04T05:21:10.270Z,52.2
2018-07-04T05:22:10.951Z,52.1
2018-07-04T05:23:11.633Z,51.8
2018-07-04T05:24:12.318Z,51.1
2018-07-04T05:25:13.000Z,51.5
2018-07-04T05:26:13.683Z,51.2
2018-07-04T05:27:14.367Z,50.8
2018-07-04T05:28:15.073Z,50.3
2018-07-04T05:29:15.732Z,50.3
2018-07-04T05:30:16.416Z,50.3
2018-07-04T05:31:17.149Z,50.6
2018-07-04T05:32:17.833Z,50.2
2018-07-04T05:33:18.518Z,50.3
2018-07-04T05:34:19.251Z,50.4
2018-07-04T05:35:19.937Z,50.1
2018-07-04T05:36:20.719Z,50.0
2018-07-04T05:37:21.401Z,50.6
2018-07-04T05:38:22.084Z,50.1
2018-07-04T05:39:22.818Z,50.1
2018-07-04T05:40:23.553Z,49.8
2018-07-04T05:41:24.235Z,50.1
2018-07-04T05:42:24.918Z,50.0
2018-07-04T05:43:25.607Z,49.9
2018-07-04T05:44:26.340Z,49.7
2018-07-04T05:45:27.017Z,50.0
2018-07-04T05:46:27.749Z,49.8
2018-07-04T05:47:28.482Z,49.9
2018-07-04T05:48:29.167Z,49.3
2018-07-04T05:49:29.851Z,49.5
2018-07-04T05:50:30.585Z,49.2
2018-07-04T05:51:31.271Z,49.0
2018-07-04T05:52:31.954Z,49.1
2018-07-04T05:53:32.687Z,49.4
2018-07-04T05:54:33.371Z,49.4
2018-07-04T05:55:34.105Z,49.1
2018-07-04T05:56:34.789Z,48.4
2018-07-04T05:57:35.523Z,48.4
2018-07-04T05:58:36.206Z,48.7
2018-07-04T05:59:36.890Z,48.5
2018-07-04T06:00:37.575Z,48.2
2018-07-04T06:01:38.260Z,48.1
2018-07-04T06:02:39.056Z,48.2
2018-07-04T06:03:39.679Z,48.3
2018-07-04T06:04:40.415Z,48.4
2018-07-04T06:05:41.100Z,47.5
2018-07-04T06:06:41.785Z,47.5
2018-07-04T06:07:42.470Z,47.2
2018-07-04T06:08:43.156Z,47.1
2018-07-04T06:09:43.894Z,46.8
2018-07-04T06:10:44.631Z,46.3
2018-07-04T06:11:45.309Z,45.7
2018-07-04T06:12:45.996Z,45.4
2018-07-04T06:13:46.683Z,45.0
2018-07-04T06:14:47.419Z,43.5
2018-07-04T06:15:48.105Z,41.2
2018-07-04T06:16:48.843Z,38.6
2018-07-04T06:17:49.578Z,35.7
2018-07-04T06:18:50.266Z,33.2
2018-07-04T06:19:50.952Z,31.6
2018-07-04T06:20:51.691Z,29.3
2018-07-04T06:21:52.378Z,27.6
2018-07-04T06:22:53.067Z,25.8
2018-07-04T06:23:53.755Z,25.1
2018-07-04T06:24:54.543Z,23.9
2018-07-04T06:25:55.233Z,23.0
2018-07-04T06:26:55.922Z,22.1
2018-07-04T06:27:56.614Z,20.8
2018-07-04T06:28:57.304Z,19.8
2018-07-04T06:29:58.045Z,18.6
2018-07-04T06:30:58.736Z,17.7
2018-07-04T06:31:59.432Z,16.9
2018-07-04T06:33:00.120Z,16.6
2018-07-04T06:34:00.864Z,15.5
2018-07-04T06:35:01.557Z,15.5
2018-07-04T06:36:02.252Z,14.8
2018-07-04T06:37:02.993Z,14.7
2018-07-04T06:38:03.735Z,13.9
2018-07-04T06:39:04.455Z,13.2
2018-07-04T06:40:05.175Z,12.9
2018-07-04T06:41:05.869Z,12.8
2018-07-04T06:42:06.564Z,12.3
2018-07-04T06:43:07.260Z,11.9
2018-07-04T06:44:08.005Z,11.9
2018-07-04T06:45:08.700Z,11.2
2018-07-04T06:46:09.396Z,10.7
2018-07-04T06:47:10.093Z,11.0
2018-07-04T06:48:10.791Z,10.6
2018-07-04T06:49:11.702Z,10.3
2018-07-04T06:50:12.375Z,10.6
2018-07-04T06:51:13.071Z,10.7
2018-07-04T06:52:13.769Z,10.5
2018-07-04T06:53:14.465Z,10.8
2018-07-04T06:54:15.260Z,11.2
2018-07-04T06:55:15.909Z,11.1
2018-07-04T06:56:16.608Z,11.7
2018-07-04T06:57:17.302Z,11.6
2018-07-04T06:58:18.000Z,11.7
2018-07-04T06:59:18.746Z,11.3
2018-07-04T07:00:19.443Z,11.9
2018-07-04T07:01:20.141Z,12.1
2018-07-04T07:02:20.840Z,12.1
2018-07-04T07:03:21.533Z,12.8
2018-07-04T07:04:22.281Z,12.7
2018-07-04T07:05:22.978Z,12.8
2018-07-04T07:06:23.675Z,12.6
2018-07-04T07:07:24.372Z,12.9
2018-07-04T07:08:25.144Z,12.6
2018-07-04T07:09:25.813Z,11.7
2018-07-04T07:10:26.510Z,11.9
2018-07-04T07:11:27.207Z,11.3
2018-07-04T07:12:27.905Z,11.6
2018-07-04T07:13:28.653Z,11.3
2018-07-04T07:14:29.396Z,10.4
2018-07-04T07:15:30.046Z,10.4
2018-07-04T07:16:30.796Z,10.5
2018-07-04T07:17:31.485Z,10.4
2018-07-04T07:18:32.184Z,10.4
2018-07-04T07:19:32.930Z,10.2
2018-07-04T07:20:33.628Z,10.0
2018-07-04T07:21:34.323Z,9.6
2018-07-04T07:22:35.069Z,9.8
2018-07-04T07:23:35.816Z,9.3
2018-07-04T07:24:36.513Z,8.3
2018-07-04T07:25:37.210Z,8.3
2018-07-04T07:26:37.905Z,8.7
2018-07-04T07:27:38.652Z,8.8
2018-07-04T07:28:39.297Z,8.9
2018-07-04T07:29:39.992Z,8.7
2018-07-04T07:30:40.689Z,8.9
2018-07-04T07:31:41.388Z,8.8
2018-07-04T07:32:42.137Z,8.7
2018-07-04T07:33:42.829Z,8.2
2018-07-04T07:34:43.525Z,8.2
2018-07-04T07:35:44.221Z,8.1
2018-07-04T07:36:45.006Z,8.0
2018-07-04T07:37:45.663Z,8.2
2018-07-04T07:38:46.359Z,8.2
2018-07-04T07:39:47.057Z,8.1
2018-07-04T07:40:47.803Z,8.2
2018-07-04T07:41:48.548Z,8.9
2018-07-04T07:42:49.245Z,8.9
2018-07-04T07:43:49.939Z,9.3
2018-07-04T07:44:50.633Z,9.3
2018-07-04T07:45:51.378Z,9.9
2018-07-04T07:46:52.076Z,9.9
2018-07-04T07:47:52.771Z,9.9
2018-07-04T07:48:53.468Z,10.0
2018-07-04T07:49:54.166Z,9.7
2018-07-04T07:50:54.867Z,10.0
2018-07-04T07:51:55.611Z,10.0
2018-07-04T07:52:56.309Z,10.2
2018-07-04T07:53:57.003Z,10.2
2018-07-04T07:54:57.702Z,10.2
2018-07-04T07:55:58.397Z,10.0
2018-07-04T07:56:59.094Z,9.9
2018-07-04T07:57:59.841Z,10.2
2018-07-04T07:59:00.539Z,10.0
2018-07-04T08:00:01.283Z,10.0
2018-07-04T08:01:01.978Z,9.8
2018-07-04T08:02:02.723Z,9.7
2018-07-04T08:03:03.418Z,9.4
2018-07-04T08:04:04.112Z,9.3
2018-07-04T08:05:04.808Z,9.2
2018-07-04T08:06:05.503Z,9.1
2018-07-04T08:07:06.249Z,8.7
2018-07-04T08:08:06.943Z,8.2
2018-07-04T08:09:07.642Z,8.3
2018-07-04T08:10:08.384Z,8.3
2018-07-04T08:11:09.130Z,8.1
2018-07-04T08:12:09.826Z,7.5
2018-07-04T08:13:10.521Z,7.5
2018-07-04T08:14:11.265Z,7.3
2018-07-04T08:15:11.961Z,7.4
2018-07-04T08:16:12.657Z,6.8
2018-07-04T08:17:13.352Z,6.7
2018-07-04T08:18:14.047Z,6.3
2018-07-04T08:19:14.744Z,6.4
2018-07-04T08:20:15.488Z,5.9
2018-07-04T08:21:16.185Z,6.0
2018-07-04T08:22:16.880Z,6.2
2018-07-04T08:23:17.624Z,6.4
2018-07-04T08:24:18.319Z,5.7
2018-07-04T08:25:19.012Z,5.6
2018-07-04T08:26:19.719Z,6.1
2018-07-04T08:27:20.398Z,6.0
2018-07-04T08:28:21.145Z,6.1
2018-07-04T08:29:21.885Z,6.8
2018-07-04T08:30:22.579Z,6.9
2018-07-04T08:31:23.275Z,6.6
2018-07-04T08:32:23.972Z,6.8
2018-07-04T08:33:24.767Z,6.9
2018-07-04T08:34:25.460Z,7.1
2018-07-04T08:35:26.151Z,6.4
2018-07-04T08:36:26.846Z,6.4
2018-07-04T08:37:27.540Z,6.5
2018-07-04T08:38:28.284Z,6.5
2018-07-04T08:39:28.979Z,6.4
2018-07-04T08:40:29.671Z,6.7
2018-07-04T08:41:30.417Z,6.5
2018-07-04T08:42:31.109Z,6.4
2018-07-04T08:43:31.902Z,6.9
2018-07-04T08:44:32.596Z,7.1
2018-07-04T08:45:33.338Z,7.1
2018-07-04T08:46:34.031Z,7.5
2018-07-04T08:47:34.775Z,7.4
2018-07-04T08:48:35.517Z,8.1
2018-07-04T08:49:36.210Z,7.8
2018-07-04T08:50:36.983Z,7.6
2018-07-04T08:51:37.599Z,8.1
2018-07-04T08:52:38.331Z,7.9
2018-07-04T08:53:39.037Z,8.0
2018-07-04T08:54:39.731Z,7.6
2018-07-04T08:55:40.424Z,7.4
2018-07-04T08:56:41.118Z,7.3
2018-07-04T08:57:41.811Z,7.3
2018-07-04T08:58:42.602Z,7.4
2018-07-04T08:59:43.294Z,7.4
2018-07-04T09:00:43.990Z,7.4
2018-07-04T09:01:44.684Z,7.4
2018-07-04T09:02:45.429Z,7.5
2018-07-04T09:03:46.170Z,7.5
2018-07-04T09:04:46.866Z,7.3
2018-07-04T09:05:47.560Z,7.1
2018-07-04T09:06:48.304Z,7.3
2018-07-04T09:07:48.999Z,7.5
2018-07-04T09:08:49.691Z,7.1
2018-07-04T09:09:50.384Z,7.3
2018-07-04T09:10:51.078Z,6.9
2018-07-04T09:11:51.854Z,6.9
2018-07-04T09:12:52.517Z,7.2
2018-07-04T09:13:53.223Z,7.3
2018-07-04T09:14:53.906Z,7.8
2018-07-04T09:15:54.600Z,8.2
2018-07-04T09:16:55.344Z,7.5
2018-07-04T09:17:56.088Z,8.0
2018-07-04T09:18:56.833Z,8.1
2018-07-04T09:19:57.528Z,8.3
2018-07-04T09:20:58.222Z,7.7
2018-07-04T09:21:58.919Z,7.8
2018-07-04T09:22:59.626Z,7.7
2018-07-04T09:24:00.354Z,7.7
2018-07-04T09:25:01.051Z,7.4
2018-07-04T09:26:01.740Z,7.4
2018-07-04T09:27:02.436Z,7.4
2018-07-04T09:28:03.227Z,7.5
2018-07-04T09:29:03.922Z,7.4
2018-07-04T09:30:04.616Z,7.5
2018-07-04T09:31:05.311Z,7.8
2018-07-04T09:32:06.006Z,7.3
2018-07-04T09:33:06.750Z,7.4
2018-07-04T09:34:07.443Z,7.3
2018-07-04T09:35:08.135Z,7.1
2018-07-04T09:36:08.830Z,7.2
2018-07-04T09:37:09.525Z,7.1
2018-07-04T09:38:10.270Z,6.8
2018-07-04T09:39:10.965Z,7.1
2018-07-04T09:40:11.660Z,7.2
2018-07-04T09:41:12.354Z,7.4
2018-07-04T09:42:13.098Z,7.8
2018-07-04T09:43:13.844Z,8.1
2018-07-04T09:44:14.588Z,8.1
2018-07-04T09:45:15.278Z,8.1
2018-07-04T09:46:15.971Z,8.2
2018-07-04T09:47:16.668Z,8.2
2018-07-04T09:48:17.357Z,8.6
2018-07-04T09:49:18.052Z,8.9
2018-07-04T09:50:18.844Z,9.3
2018-07-04T09:51:19.539Z,9.8
2018-07-04T09:52:20.232Z,10.2
2018-07-04T09:53:20.978Z,9.6
2018-07-04T09:54:21.671Z,9.2
2018-07-04T09:55:22.366Z,9.3
2018-07-04T09:56:23.060Z,8.9
2018-07-04T09:57:23.753Z,8.7
2018-07-04T09:58:24.496Z,8.7
2018-07-04T09:59:25.191Z,8.9
2018-07-04T10:00:25.885Z,8.7
2018-07-04T10:01:26.628Z,8.9
2018-07-04T10:02:27.322Z,9.3
2018-07-04T10:03:28.016Z,9.2
2018-07-04T10:04:28.711Z,9.4
2018-07-04T10:05:29.406Z,9.7
2018-07-04T10:06:30.149Z,9.9
2018-07-04T10:07:30.844Z,10.3
2018-07-04T10:08:31.538Z,10.4
2018-07-04T10:09:32.233Z,10.6
2018-07-04T10:10:32.928Z,10.9
2018-07-04T10:11:33.672Z,10.9
2018-07-04T10:12:34.377Z,10.6
2018-07-04T10:13:35.062Z,11.0
2018-07-04T10:14:35.757Z,10.6
2018-07-04T10:15:36.454Z,10.9
2018-07-04T10:16:37.198Z,11.2
2018-07-04T10:17:37.895Z,11.2
2018-07-04T10:18:38.590Z,11.1
2018-07-04T10:19:39.284Z,10.2
2018-07-04T10:20:40.029Z,10.3
2018-07-04T10:21:40.771Z,10.6
2018-07-04T10:22:41.467Z,11.1
2018-07-04T10:23:42.210Z,11.5
2018-07-04T10:24:43.003Z,11.1
2018-07-04T10:25:43.600Z,11.4
2018-07-04T10:26:44.341Z,11.4
2018-07-04T10:27:45.086Z,11.2
2018-07-04T10:28:45.830Z,11.3
2018-07-04T10:29:46.527Z,11.4
2018-07-04T10:30:47.274Z,11.7
2018-07-04T10:31:47.966Z,11.9
2018-07-04T10:32:48.662Z,11.5
2018-07-04T10:33:49.358Z,11.1
2018-07-04T10:34:50.053Z,10.4
2018-07-04T10:35:50.797Z,10.4
2018-07-04T10:36:51.492Z,10.5
2018-07-04T10:37:52.238Z,10.6
2018-07-04T10:38:52.984Z,11.0
2018-07-04T10:39:53.678Z,10.6
2018-07-04T10:40:54.374Z,10.9
2018-07-04T10:41:55.070Z,11.1
2018-07-04T10:42:55.765Z,11.2
2018-07-04T10:43:56.510Z,11.7
2018-07-04T10:44:57.206Z,11.8
2018-07-04T10:45:57.896Z,11.3
2018-07-04T10:46:58.590Z,11.6
2018-07-04T10:47:59.284Z,11.7
2018-07-04T10:49:00.031Z,11.7
2018-07-04T10:50:00.724Z,12.5
2018-07-04T10:51:01.439Z,12.4
2018-07-04T10:52:02.114Z,11.9
2018-07-04T10:53:02.809Z,12.1
2018-07-04T10:54:03.553Z,12.8
2018-07-04T10:55:04.250Z,13.0
2018-07-04T10:56:04.945Z,12.8
2018-07-04T10:57:05.689Z,13.0
2018-07-04T10:58:06.385Z,13.1
2018-07-04T10:59:07.129Z,13.6
2018-07-04T11:00:07.876Z,14.0
2018-07-04T11:01:08.567Z,13.9
2018-07-04T11:02:09.260Z,13.9
2018-07-04T11:03:10.005Z,14.2
2018-07-04T11:04:10.746Z,14.4
2018-07-04T11:05:11.441Z,14.5
2018-07-04T11:06:12.133Z,14.7
2018-07-04T11:07:12.879Z,14.7
2018-07-04T11:08:13.606Z,14.6
2018-07-04T11:09:14.266Z,14.7
2018-07-04T11:10:15.061Z,14.7
2018-07-04T11:11:15.765Z,14.8
2018-07-04T11:12:16.497Z,14.4
2018-07-04T11:13:17.241Z,14.8
2018-07-04T11:14:17.935Z,14.3
2018-07-04T11:15:18.676Z,14.4
2018-07-04T11:16:19.369Z,14.7
2018-07-04T11:17:20.061Z,14.7
2018-07-04T11:18:20.755Z,14.9
2018-07-04T11:19:21.451Z,14.4
2018-07-04T11:20:22.146Z,14.4
2018-07-04T11:21:22.842Z,14.3
2018-07-04T11:22:23.590Z,14.3
2018-07-04T11:23:24.283Z,14.0
2018-07-04T11:24:24.992Z,14.1
2018-07-04T11:25:25.673Z,14.0
2018-07-04T11:26:26.417Z,13.6
2018-07-04T11:27:27.112Z,13.9
2018-07-04T11:28:27.840Z,13.9
2018-07-04T11:29:28.549Z,14.0
2018-07-04T11:30:29.244Z,13.9
2018-07-04T11:31:29.943Z,13.9
2018-07-04T11:32:30.636Z,13.6
2018-07-04T11:33:31.383Z,13.8
2018-07-04T11:34:32.077Z,13.6
2018-07-04T11:35:32.773Z,13.6
2018-07-04T11:36:33.517Z,13.9
2018-07-04T11:37:34.215Z,13.9
2018-07-04T11:38:34.955Z,14.0
2018-07-04T11:39:35.648Z,14.2
2018-07-04T11:40:36.341Z,14.2
2018-07-04T11:41:37.087Z,14.6
2018-07-04T11:42:37.779Z,14.6
2018-07-04T11:43:38.474Z,14.4
2018-07-04T11:44:39.168Z,14.4
2018-07-04T11:45:39.863Z,14.5
2018-07-04T11:46:40.607Z,14.8
2018-07-04T11:47:41.302Z,14.8
2018-07-04T11:48:41.996Z,14.9
2018-07-04T11:49:42.690Z,14.6
2018-07-04T11:50:43.382Z,14.8
2018-07-04T11:51:44.075Z,15.0
2018-07-04T11:52:44.820Z,14.9
2018-07-04T11:53:45.515Z,14.7
2018-07-04T11:54:46.255Z,14.9
2018-07-04T11:55:46.948Z,14.5
2018-07-04T11:56:47.650Z,14.8
2018-07-04T11:57:48.387Z,15.3
2018-07-04T11:58:49.081Z,15.1
2018-07-04T11:59:49.772Z,14.9
2018-07-04T12:00:50.466Z,15.3
2018-07-04T12:01:51.187Z,15.4
2018-07-04T12:02:51.946Z,15.7
2018-07-04T12:03:52.640Z,15.3
2018-07-04T12:04:53.380Z,15.0
2018-07-04T12:05:54.075Z,14.8
2018-07-04T12:06:54.767Z,15.3
2018-07-04T12:07:55.509Z,15.6
2018-07-04T12:08:56.202Z,15.5
2018-07-04T12:09:56.944Z,15.2
2018-07-04T12:10:57.651Z,15.6
2018-07-04T12:11:58.329Z,16.1
2018-07-04T12:12:59.071Z,16.2
2018-07-04T12:13:59.764Z,16.1
2018-07-04T12:15:00.507Z,16.3
2018-07-04T12:16:01.200Z,16.5
2018-07-04T12:17:01.952Z,16.9
2018-07-04T12:18:02.646Z,16.6
2018-07-04T12:19:03.338Z,16.5
2018-07-04T12:20:04.084Z,16.5
2018-07-04T12:21:04.773Z,16.3
2018-07-04T12:22:05.465Z,16.3
2018-07-04T12:23:06.158Z,16.3
2018-07-04T12:24:06.852Z,16.2
2018-07-04T12:25:07.595Z,16.4
2018-07-04T12:26:08.288Z,17.0
2018-07-04T12:27:09.028Z,16.8
2018-07-04T12:28:09.721Z,17.5
2018-07-04T12:29:10.414Z,17.1
2018-07-04T12:30:11.108Z,16.8
2018-07-04T12:31:11.806Z,17.4
2018-07-04T12:32:12.544Z,17.4
2018-07-04T12:33:13.283Z,17.8
2018-07-04T12:34:13.976Z,17.8
2018-07-04T12:35:14.671Z,17.6
2018-07-04T12:36:15.360Z,17.5
2018-07-04T12:37:16.053Z,17.7
2018-07-04T12:38:16.800Z,18.3
2018-07-04T12:39:17.490Z,18.3
2018-07-04T12:40:18.177Z,18.6
2018-07-04T12:41:18.871Z,18.6
2018-07-04T12:42:19.562Z,18.9
2018-07-04T12:43:20.294Z,19.2
2018-07-04T12:44:20.950Z,19.2
2018-07-04T12:45:21.644Z,18.6
2018-07-04T12:46:22.342Z,19.2
2018-07-04T12:47:23.165Z,19.3
2018-07-04T12:48:23.773Z,19.2
2018-07-04T12:49:24.461Z,19.3
2018-07-04T12:50:25.155Z,19.0
2018-07-04T12:51:25.864Z,19.2
2018-07-04T12:52:26.540Z,18.9
2018-07-04T12:53:27.235Z,18.6
2018-07-04T12:54:27.983Z,19.2
2018-07-04T12:55:28.621Z,19.1
2018-07-04T12:56:29.367Z,19.1
2018-07-04T12:57:30.059Z,19.4
2018-07-04T12:58:30.746Z,19.2
2018-07-04T12:59:31.543Z,19.0
2018-07-04T13:00:32.181Z,19.4
2018-07-04T13:01:32.874Z,19.0
2018-07-04T13:02:33.564Z,18.1
2018-07-04T13:03:34.262Z,18.3
2018-07-04T13:04:35.002Z,18.4
2018-07-04T13:05:35.694Z,18.2
2018-07-04T13:06:36.496Z,18.8
2018-07-04T13:07:37.130Z,19.0
2018-07-04T13:08:37.823Z,19.2
2018-07-04T13:09:38.519Z,19.4
2018-07-04T13:10:39.258Z,19.5
2018-07-04T13:11:40.050Z,19.4
2018-07-04T13:12:40.739Z,19.5
2018-07-04T13:13:41.431Z,19.6
2018-07-04T13:14:42.125Z,19.3
2018-07-04T13:15:42.916Z,19.6
2018-07-04T13:16:43.608Z,19.6
2018-07-04T13:17:44.351Z,19.4
2018-07-04T13:18:45.043Z,19.7
2018-07-04T13:19:45.737Z,19.7
2018-07-04T13:20:46.474Z,20.0
2018-07-04T13:21:47.127Z,20.2
2018-07-04T13:22:47.867Z,20.1
2018-07-04T13:23:48.563Z,20.3
2018-07-04T13:24:49.255Z,19.8
2018-07-04T13:25:49.994Z,19.8
2018-07-04T13:26:50.639Z,19.9
2018-07-04T13:27:51.382Z,19.7
2018-07-04T13:28:52.075Z,19.8
2018-07-04T13:29:52.818Z,20.1
2018-07-04T13:30:53.511Z,20.6
2018-07-04T13:31:54.248Z,20.5
2018-07-04T13:32:54.899Z,20.2